createdAt,value
2019-05-18T00:00:34.230Z,9.90
2019-05-18T00:03:06.156Z,9.90
2019-05-18T00:05:37.636Z,9.80
2019-05-18T00:08:09.477Z,9.80
2019-05-18T00:10:41.086Z,9.80
2019-05-18T00:13:12.689Z,9.80
2019-05-18T00:15:44.174Z,9.80
2019-05-18T00:18:15.715Z,9.80
2019-05-18T00:20:47.252Z,9.80
2019-05-18T00:23:18.754Z,9.80
2019-05-18T00:25:50.340Z,9.80
2019-05-18T00:28:23.004Z,9.70
2019-05-18T00:30:54.619Z,9.60
2019-05-18T00:33:26.434Z,9.60
2019-05-18T00:35:58.868Z,9.60
2019-05-18T00:38:30.363Z,9.60
2019-05-18T00:41:01.848Z,9.50
2019-05-18T00:43:33.345Z,9.50
2019-05-18T00:46:05.226Z,9.50
2019-05-18T00:48:36.712Z,9.50
2019-05-18T00:51:08.197Z,9.40
2019-05-18T00:53:39.768Z,9.40
2019-05-18T00:56:11.246Z,9.40
2019-05-18T00:58:42.811Z,9.30
2019-05-18T01:01:15.265Z,9.30
2019-05-18T01:03:46.669Z,9.30
2019-05-18T01:06:18.385Z,9.30
2019-05-18T01:08:50.214Z,9.40
2019-05-18T01:11:21.696Z,9.50
2019-05-18T01:13:53.214Z,9.40
2019-05-18T01:16:25.104Z,9.40
2019-05-18T01:18:56.673Z,9.40
2019-05-18T01:21:29.221Z,9.40
2019-05-18T01:24:00.725Z,9.40
2019-05-18T01:26:32.480Z,9.30
2019-05-18T01:29:06.625Z,9.30
2019-05-18T01:31:38.140Z,9.30
2019-05-18T01:34:09.623Z,9.30
2019-05-18T01:36:41.433Z,9.20
2019-05-18T01:39:12.943Z,9.20
2019-05-18T01:41:44.423Z,9.20
2019-05-18T01:44:15.922Z,9.20
2019-05-18T01:46:47.407Z,9.10
2019-05-18T01:49:18.846Z,9.10
2019-05-18T01:51:50.365Z,9.00
2019-05-18T01:54:21.881Z,9.00
2019-05-18T01:56:53.375Z,9.00
2019-05-18T01:59:24.875Z,8.90
2019-05-18T02:01:56.355Z,8.90
2019-05-18T02:04:27.925Z,8.80
2019-05-18T02:06:59.522Z,8.80
2019-05-18T02:09:30.892Z,8.70
2019-05-18T02:12:02.383Z,8.70
2019-05-18T02:14:34.902Z,8.70
2019-05-18T02:17:06.673Z,8.60
2019-05-18T02:19:38.171Z,8.60
2019-05-18T02:22:09.982Z,8.60
2019-05-18T02:24:41.485Z,8.60
2019-05-18T02:27:12.921Z,8.60
2019-05-18T02:29:44.703Z,8.50
2019-05-18T02:32:16.453Z,8.50
2019-05-18T02:34:47.967Z,8.40
2019-05-18T02:37:19.360Z,8.40
2019-05-18T02:39:54.932Z,8.40
2019-05-18T02:42:30.518Z,8.40
2019-05-18T02:44:59.578Z,8.40
2019-05-18T02:47:31.101Z,8.50
2019-05-18T02:50:02.580Z,8.40
2019-05-18T02:52:34.081Z,8.40
2019-05-18T02:55:06.342Z,8.40
2019-05-18T02:57:37.848Z,8.40
2019-05-18T03:00:10.575Z,8.50
2019-05-18T03:02:42.037Z,8.50
2019-05-18T03:05:14.076Z,8.50
2019-05-18T03:07:45.561Z,8.50
2019-05-18T03:10:17.469Z,8.50
2019-05-18T03:12:48.975Z,8.50
2019-05-18T03:15:20.459Z,8.40
2019-05-18T03:17:52.015Z,8.40
2019-05-18T03:20:23.503Z,8.40
2019-05-18T03:22:54.893Z,8.30
2019-05-18T03:25:26.393Z,8.30
2019-05-18T03:27:57.894Z,8.30
2019-05-18T03:30:29.444Z,8.30
2019-05-18T03:33:00.886Z,8.20
2019-05-18T03:35:32.758Z,8.10
2019-05-18T03:38:04.338Z,8.10
2019-05-18T03:40:35.794Z,8.10
2019-05-18T03:43:07.341Z,8.10
2019-05-18T03:45:38.762Z,8.10
2019-05-18T03:48:10.272Z,8.10
2019-05-18T03:50:41.744Z,8.00
2019-05-18T03:53:13.218Z,8.00
2019-05-18T03:55:44.681Z,8.00
2019-05-18T03:58:16.061Z,8.10
2019-05-18T04:00:47.488Z,8.20
2019-05-18T04:03:19.217Z,8.30
2019-05-18T04:05:51.116Z,8.30
2019-05-18T04:08:22.661Z,8.40
2019-05-18T04:10:54.394Z,8.30
2019-05-18T04:13:25.846Z,8.40
2019-05-18T04:15:57.290Z,8.50
2019-05-18T04:18:28.748Z,8.60
2019-05-18T04:21:06.246Z,8.70
2019-05-18T04:23:50.914Z,8.80
2019-05-18T04:26:23.454Z,8.80
2019-05-18T04:28:54.834Z,8.90
2019-05-18T04:31:26.261Z,9.00
2019-05-18T04:33:57.770Z,9.10
2019-05-18T04:36:29.532Z,9.20
2019-05-18T04:39:00.829Z,9.30
2019-05-18T04:41:33.625Z,9.40
2019-05-18T04:44:05.464Z,9.50
2019-05-18T04:46:36.971Z,9.60
2019-05-18T04:49:08.430Z,9.70
2019-05-18T04:51:39.916Z,9.80
2019-05-18T04:54:11.727Z,9.90
2019-05-18T04:56:43.421Z,10.00
2019-05-18T04:59:14.936Z,10.10
2019-05-18T05:01:46.531Z,10.20
2019-05-18T05:04:18.005Z,10.20
2019-05-18T05:06:49.571Z,10.30
2019-05-18T05:09:20.953Z,10.50
2019-05-18T05:11:52.952Z,10.60
2019-05-18T05:14:24.211Z,10.80
2019-05-18T05:16:55.917Z,10.80
2019-05-18T05:19:27.399Z,11.00
2019-05-18T05:21:59.142Z,11.20
2019-05-18T05:24:30.687Z,11.20
2019-05-18T05:27:02.230Z,11.30
2019-05-18T05:29:33.695Z,11.40
2019-05-18T05:32:05.512Z,11.60
2019-05-18T05:34:37.118Z,11.50
2019-05-18T05:37:08.949Z,11.50
2019-05-18T05:39:40.539Z,11.50
2019-05-18T05:42:11.989Z,11.60
2019-05-18T05:44:43.316Z,11.50
2019-05-18T05:47:14.902Z,11.60
2019-05-18T05:49:46.214Z,11.70
2019-05-18T05:52:18.063Z,11.90
2019-05-18T05:54:49.750Z,12.10
2019-05-18T05:57:21.208Z,12.30
2019-05-18T05:59:52.980Z,12.50
2019-05-18T06:02:24.442Z,12.70
2019-05-18T06:04:55.946Z,13.00
2019-05-18T06:07:27.421Z,13.30
2019-05-18T06:09:59.150Z,13.50
2019-05-18T06:12:30.538Z,13.70
2019-05-18T06:15:01.885Z,13.90
2019-05-18T06:17:33.311Z,14.10
2019-05-18T06:20:05.191Z,14.20
2019-05-18T06:22:38.360Z,14.30
2019-05-18T06:25:10.838Z,14.40
2019-05-18T06:27:42.362Z,14.60
2019-05-18T06:30:14.198Z,14.80
2019-05-18T06:32:45.602Z,15.10
2019-05-18T06:35:17.189Z,15.30
2019-05-18T06:37:48.572Z,15.50
2019-05-18T06:40:20.375Z,15.50
2019-05-18T06:42:51.997Z,15.50
2019-05-18T06:45:23.676Z,15.70
2019-05-18T06:47:55.192Z,15.90
2019-05-18T06:50:31.269Z,15.90
2019-05-18T06:53:02.901Z,16.10
2019-05-18T06:55:35.552Z,16.20
2019-05-18T06:58:07.525Z,16.30
2019-05-18T07:00:39.308Z,16.50
2019-05-18T07:03:10.993Z,16.60
2019-05-18T07:05:45.575Z,16.70
2019-05-18T07:08:15.789Z,16.90
2019-05-18T07:10:47.331Z,17.10
2019-05-18T07:13:18.735Z,17.10
2019-05-18T07:15:50.256Z,17.40
2019-05-18T07:18:21.840Z,17.50
2019-05-18T07:20:53.194Z,17.70
2019-05-18T07:23:24.602Z,17.60
2019-05-18T07:25:56.589Z,17.90
2019-05-18T07:28:27.991Z,18.00
2019-05-18T07:30:59.441Z,18.00
2019-05-18T07:33:30.833Z,18.10
2019-05-18T07:36:02.220Z,18.30
2019-05-18T07:38:33.469Z,18.30
2019-05-18T07:41:05.763Z,18.50
2019-05-18T07:43:38.158Z,18.60
2019-05-18T07:46:09.678Z,18.80
2019-05-18T07:48:41.075Z,18.90
2019-05-18T07:51:12.494Z,18.70
2019-05-18T07:53:43.959Z,18.70
2019-05-18T07:56:15.401Z,18.80
2019-05-18T07:58:47.246Z,19.00
2019-05-18T08:01:18.962Z,19.10
2019-05-18T08:03:50.418Z,19.20
2019-05-18T08:06:22.286Z,19.60
2019-05-18T08:08:53.929Z,19.80
2019-05-18T08:11:25.417Z,20.00
2019-05-18T08:13:56.898Z,20.00
2019-05-18T08:16:28.322Z,19.90
2019-05-18T08:18:59.817Z,20.00
2019-05-18T08:21:31.661Z,20.20
2019-05-18T08:24:03.107Z,20.40
2019-05-18T08:26:34.745Z,20.60
2019-05-18T08:29:06.253Z,20.70
2019-05-18T08:31:37.973Z,20.80
2019-05-18T08:34:09.430Z,21.00
2019-05-18T08:36:40.927Z,21.00
2019-05-18T08:39:12.393Z,20.70
2019-05-18T08:41:43.934Z,20.70
2019-05-18T08:44:15.274Z,20.90
2019-05-18T08:46:46.750Z,21.00
2019-05-18T08:49:18.180Z,21.20
2019-05-18T08:51:49.656Z,21.70
2019-05-18T08:54:21.655Z,21.90
2019-05-18T08:56:53.177Z,22.10
2019-05-18T08:59:24.646Z,22.00
2019-05-18T09:01:56.235Z,22.20
2019-05-18T09:04:27.547Z,22.00
2019-05-18T09:06:58.956Z,22.30
2019-05-18T09:09:30.518Z,22.70
2019-05-18T09:12:02.057Z,22.60
2019-05-18T09:14:33.984Z,22.80
2019-05-18T09:17:05.474Z,22.60
2019-05-18T09:19:37.088Z,22.60
2019-05-18T09:22:22.440Z,22.30
2019-05-18T09:24:41.863Z,22.20
2019-05-18T09:27:13.379Z,22.50
2019-05-18T09:29:44.927Z,23.00
2019-05-18T09:32:16.382Z,23.40
2019-05-18T09:34:47.811Z,23.00
2019-05-18T09:37:19.286Z,23.20
2019-05-18T09:39:50.799Z,23.50
2019-05-18T09:42:22.272Z,23.60
2019-05-18T09:44:54.184Z,23.70
2019-05-18T09:47:25.781Z,23.80
2019-05-18T09:49:57.338Z,24.20
2019-05-18T09:52:44.340Z,24.40
2019-05-18T09:55:02.365Z,24.60
2019-05-18T09:57:34.890Z,24.50
2019-05-18T10:00:07.608Z,24.70
2019-05-18T10:02:39.091Z,24.80
2019-05-18T10:05:11.015Z,25.10
2019-05-18T10:07:42.576Z,25.20
2019-05-18T10:10:15.261Z,25.00
2019-05-18T10:12:46.847Z,24.70
2019-05-18T10:15:18.730Z,24.70
2019-05-18T10:17:50.064Z,24.80
2019-05-18T10:20:21.888Z,24.90
2019-05-18T10:23:10.390Z,25.10
2019-05-18T10:25:28.067Z,24.90
2019-05-18T10:27:59.850Z,25.20
2019-05-18T10:30:31.172Z,25.30
2019-05-18T10:33:02.766Z,25.40
2019-05-18T10:35:34.264Z,25.20
2019-05-18T10:38:06.107Z,25.40
2019-05-18T10:40:37.767Z,25.70
2019-05-18T10:43:09.548Z,25.40
2019-05-18T10:45:44.796Z,25.40
2019-05-18T10:48:14.456Z,25.30
2019-05-18T10:50:46.514Z,25.60
2019-05-18T10:53:28.400Z,25.90
2019-05-18T10:55:51.627Z,26.30
2019-05-18T10:58:23.104Z,26.40
2019-05-18T11:00:54.843Z,26.30
2019-05-18T11:03:26.774Z,26.40
2019-05-18T11:05:58.243Z,26.30
2019-05-18T11:08:29.684Z,26.40
2019-05-18T11:11:01.539Z,26.50
2019-05-18T11:13:33.031Z,26.60
2019-05-18T11:16:04.588Z,26.70
2019-05-18T11:18:36.119Z,26.50
2019-05-18T11:21:07.676Z,26.60
2019-05-18T11:23:43.616Z,26.80
2019-05-18T11:26:14.092Z,26.40
2019-05-18T11:28:45.838Z,26.20
2019-05-18T11:31:17.325Z,26.50
2019-05-18T11:33:48.789Z,26.50
2019-05-18T11:36:20.269Z,26.60
2019-05-18T11:38:51.907Z,27.10
2019-05-18T11:41:23.406Z,27.10
2019-05-18T11:43:54.806Z,26.90
2019-05-18T11:46:29.557Z,27.00
2019-05-18T11:49:01.113Z,27.30
2019-05-18T11:51:32.605Z,27.50
2019-05-18T11:54:04.172Z,27.70
2019-05-18T11:56:36.262Z,28.20
2019-05-18T11:59:07.651Z,28.20
2019-05-18T12:01:39.104Z,28.10
2019-05-18T12:04:10.604Z,28.00
2019-05-18T12:06:42.163Z,28.20
2019-05-18T12:09:13.563Z,28.80
2019-05-18T12:11:45.043Z,28.60
2019-05-18T12:14:16.595Z,28.00
2019-05-18T12:16:48.774Z,27.30
2019-05-18T12:19:20.267Z,27.00
2019-05-18T12:21:52.240Z,27.00
2019-05-18T12:24:24.352Z,26.70
2019-05-18T12:26:56.126Z,26.80
2019-05-18T12:29:27.711Z,26.50
2019-05-18T12:31:59.495Z,26.40
2019-05-18T12:34:31.035Z,26.30
2019-05-18T12:37:02.535Z,26.40
2019-05-18T12:39:33.960Z,26.30
2019-05-18T12:42:07.566Z,26.20
2019-05-18T12:45:14.189Z,26.20
2019-05-18T12:47:49.475Z,26.20
2019-05-18T12:50:25.388Z,25.70
2019-05-18T12:52:56.881Z,26.00
2019-05-18T12:55:28.377Z,26.00
2019-05-18T12:57:59.955Z,26.30
2019-05-18T13:00:32.898Z,26.20
2019-05-18T13:03:04.380Z,26.10
2019-05-18T13:05:35.887Z,26.00
2019-05-18T13:08:07.661Z,26.10
2019-05-18T13:10:39.461Z,25.80
2019-05-18T13:13:10.959Z,25.80
2019-05-18T13:15:42.551Z,26.00
2019-05-18T13:18:14.035Z,26.10
2019-05-18T13:20:48.078Z,25.70
2019-05-18T13:23:19.757Z,25.50
2019-05-18T13:25:51.559Z,25.30
2019-05-18T13:28:23.494Z,25.60
2019-05-18T13:30:54.934Z,26.10
2019-05-18T13:33:26.413Z,26.60
2019-05-18T13:35:57.954Z,26.90
2019-05-18T13:38:30.065Z,26.50
2019-05-18T13:41:01.561Z,26.20
2019-05-18T13:43:33.035Z,26.40
2019-05-18T13:46:04.821Z,26.30
2019-05-18T13:48:36.357Z,26.40
2019-05-18T13:51:08.102Z,26.40
2019-05-18T13:53:39.489Z,26.00
2019-05-18T13:56:11.043Z,25.70
2019-05-18T13:58:42.520Z,25.30
2019-05-18T14:01:14.000Z,24.80
2019-05-18T14:03:45.886Z,24.40
2019-05-18T14:06:17.219Z,24.50
2019-05-18T14:08:48.911Z,24.40
2019-05-18T14:11:20.438Z,24.40
2019-05-18T14:13:51.887Z,24.30
2019-05-18T14:16:23.343Z,24.20
2019-05-18T14:18:54.794Z,24.90
2019-05-18T14:21:26.190Z,25.20
2019-05-18T14:23:57.682Z,25.10
2019-05-18T14:26:29.221Z,25.20
2019-05-18T14:29:00.620Z,25.20
2019-05-18T14:31:32.112Z,25.50
2019-05-18T14:34:03.597Z,25.20
2019-05-18T14:36:35.070Z,24.90
2019-05-18T14:39:08.652Z,24.50
2019-05-18T14:41:42.526Z,23.80
2019-05-18T14:44:14.122Z,23.30
2019-05-18T14:46:45.612Z,22.90
2019-05-18T14:49:17.222Z,22.70
2019-05-18T14:51:48.623Z,22.50
2019-05-18T14:54:24.978Z,22.40
2019-05-18T14:56:53.305Z,22.30
2019-05-18T14:59:24.771Z,22.20
2019-05-18T15:01:56.269Z,22.10
2019-05-18T15:04:27.939Z,22.00
2019-05-18T15:06:59.352Z,21.90
2019-05-18T15:09:30.824Z,21.90
2019-05-18T15:12:02.293Z,21.90
2019-05-18T15:14:33.772Z,22.00
2019-05-18T15:17:05.235Z,22.00
2019-05-18T15:19:36.679Z,22.00
2019-05-18T15:22:08.989Z,21.90
2019-05-18T15:24:40.398Z,22.00
2019-05-18T15:27:11.975Z,22.10
2019-05-18T15:29:43.433Z,22.10
2019-05-18T15:32:14.870Z,22.10
2019-05-18T15:34:46.321Z,22.10
2019-05-18T15:37:17.776Z,22.00
2019-05-18T15:39:49.688Z,22.10
2019-05-18T15:42:21.173Z,22.10
2019-05-18T15:44:52.618Z,22.10
2019-05-18T15:47:24.087Z,22.20
2019-05-18T15:49:55.402Z,22.30
2019-05-18T15:52:26.803Z,22.10
2019-05-18T15:54:58.209Z,22.10
2019-05-18T15:57:30.244Z,22.10
2019-05-18T16:00:06.201Z,22.10
2019-05-18T16:02:35.595Z,22.10
2019-05-18T16:05:08.036Z,22.00
2019-05-18T16:07:39.839Z,21.90
2019-05-18T16:10:11.873Z,21.80
2019-05-18T16:12:43.363Z,22.00
2019-05-18T16:15:15.413Z,22.10
2019-05-18T16:17:46.979Z,22.20
2019-05-18T16:20:19.073Z,22.00
2019-05-18T16:22:50.601Z,21.90
2019-05-18T16:25:22.064Z,21.80
2019-05-18T16:27:53.471Z,21.80
2019-05-18T16:30:25.522Z,21.70
2019-05-18T16:32:56.983Z,21.70
2019-05-18T16:35:28.811Z,21.90
2019-05-18T16:38:00.285Z,22.10
2019-05-18T16:40:31.766Z,22.40
2019-05-18T16:43:03.435Z,22.60
2019-05-18T16:45:35.196Z,22.90
2019-05-18T16:48:06.668Z,23.20
2019-05-18T16:50:38.239Z,23.20
2019-05-18T16:53:09.991Z,23.30
2019-05-18T16:55:41.477Z,23.60
2019-05-18T16:58:13.121Z,23.70
2019-05-18T17:00:46.061Z,23.60
2019-05-18T17:03:17.919Z,23.50
2019-05-18T17:05:49.572Z,23.40
2019-05-18T17:08:21.325Z,23.40
2019-05-18T17:10:52.751Z,23.30
2019-05-18T17:13:24.387Z,23.20
2019-05-18T17:15:55.947Z,23.00
2019-05-18T17:18:27.406Z,23.00
2019-05-18T17:20:58.894Z,22.80
2019-05-18T17:23:30.214Z,22.70
2019-05-18T17:26:01.801Z,22.50
2019-05-18T17:28:33.513Z,22.50
2019-05-18T17:31:05.085Z,22.30
2019-05-18T17:33:36.604Z,22.20
2019-05-18T17:36:08.188Z,22.10
2019-05-18T17:38:40.330Z,21.80
2019-05-18T17:41:11.831Z,21.30
2019-05-18T17:43:43.308Z,21.00
2019-05-18T17:46:14.899Z,20.70
2019-05-18T17:48:46.475Z,20.50
2019-05-18T17:51:18.532Z,20.20
2019-05-18T17:53:49.928Z,19.90
2019-05-18T17:56:21.479Z,19.70
2019-05-18T17:58:53.086Z,19.60
2019-05-18T18:01:24.825Z,19.40
2019-05-18T18:03:56.292Z,19.30
2019-05-18T18:06:27.746Z,19.10
2019-05-18T18:08:59.272Z,19.00
2019-05-18T18:11:30.756Z,18.90
2019-05-18T18:14:02.234Z,18.80
2019-05-18T18:16:33.745Z,18.70
2019-05-18T18:19:05.501Z,18.60
2019-05-18T18:21:37.743Z,18.50
2019-05-18T18:24:09.377Z,18.40
2019-05-18T18:26:40.711Z,18.20
2019-05-18T18:29:12.208Z,18.10
2019-05-18T18:31:43.701Z,18.00
2019-05-18T18:34:15.196Z,18.00
2019-05-18T18:36:46.692Z,17.90
2019-05-18T18:39:18.269Z,17.70
2019-05-18T18:41:49.802Z,17.60
2019-05-18T18:44:21.243Z,17.50
2019-05-18T18:46:53.100Z,17.30
2019-05-18T18:49:25.244Z,17.20
2019-05-18T18:51:56.739Z,17.00
2019-05-18T18:54:28.169Z,16.80
2019-05-18T18:56:59.671Z,16.60
2019-05-18T18:59:31.160Z,16.50
2019-05-18T19:02:02.547Z,16.40
2019-05-18T19:04:33.947Z,16.20
2019-05-18T19:07:08.981Z,16.00
2019-05-18T19:09:39.000Z,15.90
2019-05-18T19:12:10.535Z,15.80
2019-05-18T19:14:42.039Z,15.70
2019-05-18T19:17:13.570Z,15.60
2019-05-18T19:19:45.011Z,15.60
2019-05-18T19:22:16.514Z,15.60
2019-05-18T19:24:47.917Z,15.50
2019-05-18T19:27:19.479Z,15.50
2019-05-18T19:29:51.977Z,15.50
2019-05-18T19:32:23.475Z,15.50
2019-05-18T19:34:55.006Z,15.50
2019-05-18T19:37:26.685Z,15.50
2019-05-18T19:39:58.218Z,15.40
2019-05-18T19:42:29.702Z,15.20
2019-05-18T19:45:01.236Z,15.10
2019-05-18T19:47:32.910Z,15.00
2019-05-18T19:50:04.573Z,14.90
2019-05-18T19:52:36.472Z,14.90
2019-05-18T19:55:08.838Z,14.80
2019-05-18T19:57:40.383Z,14.80
2019-05-18T20:00:12.831Z,14.70
2019-05-18T20:02:44.624Z,14.70
2019-05-18T20:05:16.134Z,14.60
2019-05-18T20:07:47.794Z,14.50
2019-05-18T20:10:19.743Z,14.40
2019-05-18T20:12:51.289Z,14.40
2019-05-18T20:15:22.895Z,14.40
2019-05-18T20:17:54.605Z,14.50
2019-05-18T20:20:26.021Z,14.50
2019-05-18T20:22:57.577Z,14.40
2019-05-18T20:25:29.124Z,14.40
2019-05-18T20:28:00.471Z,14.40
2019-05-18T20:30:31.937Z,14.40
2019-05-18T20:33:03.426Z,14.30
2019-05-18T20:35:34.977Z,14.30
2019-05-18T20:38:06.405Z,14.30
2019-05-18T20:40:37.767Z,14.30
2019-05-18T20:43:09.250Z,14.30
2019-05-18T20:45:41.044Z,14.40
2019-05-18T20:48:12.567Z,14.40
2019-05-18T20:50:43.996Z,14.50
2019-05-18T20:53:15.491Z,14.50
2019-05-18T20:55:47.393Z,14.60
2019-05-18T20:58:18.962Z,14.70
2019-05-18T21:00:50.462Z,14.80
2019-05-18T21:03:21.946Z,14.80
2019-05-18T21:05:53.411Z,14.80
2019-05-18T21:08:24.919Z,14.80
2019-05-18T21:10:56.292Z,14.80
2019-05-18T21:13:27.724Z,14.80
2019-05-18T21:15:59.204Z,14.70
2019-05-18T21:18:30.685Z,14.70
2019-05-18T21:21:02.024Z,14.70
2019-05-18T21:23:33.845Z,14.60
2019-05-18T21:26:05.330Z,14.50
2019-05-18T21:28:36.853Z,14.60
2019-05-18T21:31:08.376Z,14.50
2019-05-18T21:33:39.852Z,14.60
2019-05-18T21:36:11.352Z,14.60
2019-05-18T21:38:42.858Z,14.70
2019-05-18T21:41:14.338Z,14.60
2019-05-18T21:43:46.097Z,14.70
2019-05-18T21:46:17.787Z,14.70
2019-05-18T21:48:49.269Z,14.70
2019-05-18T21:51:20.789Z,14.70
2019-05-18T21:53:52.634Z,14.70
2019-05-18T21:56:24.515Z,14.70
2019-05-18T21:59:10.569Z,14.70
2019-05-18T22:01:29.782Z,14.70
2019-05-18T22:04:01.606Z,14.70
2019-05-18T22:06:33.353Z,14.70
2019-05-18T22:09:06.381Z,14.60
2019-05-18T22:11:38.033Z,14.50
2019-05-18T22:14:09.527Z,14.50
2019-05-18T22:16:40.959Z,14.50
2019-05-18T22:19:12.899Z,14.60
2019-05-18T22:21:44.285Z,14.60
2019-05-18T22:24:15.805Z,14.50
2019-05-18T22:26:47.227Z,14.50
2019-05-18T22:29:19.061Z,14.50
2019-05-18T22:31:50.602Z,14.50
2019-05-18T22:34:21.987Z,14.50
2019-05-18T22:36:53.496Z,14.50
2019-05-18T22:39:26.647Z,14.50
2019-05-18T22:41:58.355Z,14.50
2019-05-18T22:44:30.192Z,14.60
2019-05-18T22:47:01.555Z,14.50
2019-05-18T22:49:32.979Z,14.50
2019-05-18T22:52:04.660Z,14.40
2019-05-18T22:54:36.443Z,14.30
2019-05-18T22:57:08.278Z,14.00
2019-05-18T22:59:39.768Z,13.80
2019-05-18T23:02:11.681Z,13.70
2019-05-18T23:04:43.184Z,13.60
2019-05-18T23:07:14.675Z,13.60
2019-05-18T23:09:46.063Z,13.70
2019-05-18T23:12:17.493Z,13.70
2019-05-18T23:14:48.905Z,13.60
2019-05-18T23:17:20.326Z,13.60
2019-05-18T23:19:52.933Z,13.60
2019-05-18T23:22:24.284Z,13.60
2019-05-18T23:24:55.754Z,13.60
2019-05-18T23:27:27.244Z,13.50
2019-05-18T23:29:58.776Z,13.50
2019-05-18T23:32:30.287Z,13.40
2019-05-18T23:35:01.765Z,13.30
2019-05-18T23:37:33.275Z,13.20
2019-05-18T23:40:05.229Z,13.10
2019-05-18T23:42:36.707Z,13.00
2019-05-18T23:45:10.323Z,12.80
2019-05-18T23:47:41.828Z,12.70
2019-05-18T23:50:13.673Z,12.60
2019-05-18T23:52:45.152Z,12.50
2019-05-18T23:55:16.752Z,12.40
2019-05-18T23:57:48.249Z,12.20
